Terminal Aerodrome Forecast
Issued by NWS Shreveport, LA

Home | Current Version | Previous Version | Text Only | Print | Product List | Glossary On
Versions: 1 2 3 4 5 6 7 8 9 10 11 12 13 14 15 16 17 18 19 20 21 22 23 24 25 26 27 28 29 30 31 32 33 34 35 36 37 38
191
FTUS44 KSHV 201432 AAB
TAFTXK
TAF AMD
KTXK 201432Z 2015/2112 14008KT P6SM -RA FEW010 SCT025 OVC060
      TEMPO 2015/2017 SCT010 BKN025
     FM201700 15013G21KT P6SM VCSH OVC035
      TEMPO 2018/2022 4SM -RA OVC035
     FM202200 15012G18KT P6SM OVC050
     FM210000 14006KT P6SM OVC100
     FM210600 16005KT P6SM OVC025=

USA.gov is the U.S. government's official web portal to all federal, state and local government web resources and services.